Hartford Brainard Airport
KHFD : now visible

Aeroporto :











RITROVATECI SU...

 
LOGIN :

Iscrizione | Disclaimer

   EN    FR    IT 

 









Sommario :    VFR   VFR Marginale   IFR   IFR Intensivo   IFR Molto Intensivo
Visibilità : 
Base nubi : 
>= 8 km
>= 3000ft
5 / 8 km
1000 / 3000 ft
1500m / 5 km
500 / 1000 ft
800 / 1500m
200 / 500 ft
< 800m
< 200 ft
Simboli :   Temporali  Nebbia  Neve Forte  Precipitazioni Forti  Vento > 20 kt






- Altitudine del aeroporto : 18 ft


KHFD - Hartford Brainard

ULTIMO METAR :
  • 040153Z 36011G16KT 10SM SCT018 OVC024 09/06 A2986 RMK AO2 SLP110 T00940056

METARs OBSOLETI :
  • 040053Z 02015G22KT 10SM BKN024 BKN029 OVC035 10/05 A2984 RMK AO2 SLP103 T01000050
  • 040051Z 01014G22KT 10SM BKN024 BKN029 OVC035 10/05 A2984 RMK AO2
  • 040037Z 02013G21KT 10SM SCT023 OVC031 10/05 A2983 RMK AO2 T01000050
  • 040003Z 01017KT 10SM BKN029 OVC034 10/05 A2981 RMK AO2 T01000050
  • 032353Z 01015G22KT 10SM FEW023 OVC030 11/05 A2981 RMK AO2 PK WND 36026/2258 RAB24E30 SLP094 P0000 60000 T01060050 10117 20100 51036

TAF N/A



MetMap, La meteo Aeronautica in un colpo d'occhio ! - Copyright ORBIFLY Dicembre 2007 - Disclaimer

ORBIFLY MET'MAP TEAM :

Programmazione e sviluppo : Alexandra Zaïnal
Concezione : Baudouin d'Aumeries
Aiuto per la programmazione : Marc-Olivier Méhu
Supporto tecnico e logistico : Manuel Goepfert
Aiuto per la traduzione : Arnaldo La Scala

Contatto : metmap@orbifly.com




FONTI E CREDITI :

   NOAA       Earth
Advisory